Time;durP1;ratioP1;P1;durP2;ratioP2;P2;SDS_P1;SDS_P2;PMS_P1;PMS_P2;Temp;Humidity;BMP_temperature;BMP_pressure;BME280_temperature;BME280_humidity;BME280_pressure;Samples;Min_cycle;Max_cycle;Signal;HPM_P1;HPM_P2
2021/10/27 05:48:00;;;;;;;9.93;2.40;;;16.80;78.20;;;;;;4783740;30;20458;-70
2021/10/27 05:50:36;;;;;;;12.88;2.80;;;16.80;78.10;;;;;;4790033;30;20474;-72
2021/10/27 05:55:46;;;;;;;14.48;2.42;;;16.90;77.60;;;;;;4789558;30;20047;-70
2021/10/27 05:58:13;;;;;;;11.70;2.85;;;16.90;77.50;;;;;;4789512;30;20051;-71
2021/10/27 06:00:41;;;;;;;12.73;2.22;;;17.00;77.40;;;;;;4790824;29;20055;-70
2021/10/27 06:03:07;;;;;;;13.20;2.40;;;17.00;77.30;;;;;;4793060;30;20459;-70
2021/10/27 06:05:33;;;;;;;10.98;2.45;;;17.00;77.30;;;;;;4793098;30;20051;-73
2021/10/27 06:07:59;;;;;;;15.90;3.33;;;17.10;77.30;;;;;;4762635;30;20066;-77
2021/10/27 06:10:25;;;;;;;18.90;2.67;;;17.10;77.20;;;;;;4792646;30;20051;-76
2021/10/27 06:12:57;;;;;;;12.88;3.05;;;17.10;77.20;;;;;;4777102;30;20063;-76
2021/10/27 06:15:23;;;;;;;10.63;2.35;;;17.10;77.20;;;;;;4793074;30;20145;-68
2021/10/27 06:17:49;;;;;;;12.13;2.70;;;17.10;77.20;;;;;;4793010;30;20095;-70
2021/10/27 06:20:16;;;;;;;14.27;3.05;;;17.20;77.10;;;;;;4793060;30;20043;-70
2021/10/27 06:22:43;;;;;;;14.27;2.10;;;17.20;76.90;;;;;;4792772;30;20059;-70
2021/10/27 06:25:11;;;;;;;12.95;2.63;;;17.20;77.40;;;;;;4792856;30;20055;-71
2021/10/27 06:27:38;;;;;;;15.70;2.67;;;17.20;76.70;;;;;;4793159;30;20453;-70
2021/10/27 06:32:37;;;;;;;9.38;3.25;;;17.20;76.50;;;;;;4792650;30;20534;-70
2021/10/27 06:35:09;;;;;;;14.98;3.25;;;17.20;76.50;;;;;;4777598;30;20106;-70
2021/10/27 06:48:22;;;;;;;10.20;2.70;;;17.20;76.20;;;;;;4792128;29;20499;-71
2021/10/27 06:50:49;;;;;;;11.25;2.55;;;17.20;76.20;;;;;;4791501;30;20059;-71
2021/10/27 06:53:14;;;;;;;10.02;2.80;;;17.20;76.20;;;;;;4792880;30;20055;-69
2021/10/27 06:55:40;;;;;;;10.65;2.70;;;17.20;76.10;;;;;;4792336;30;20502;-70
2021/10/27 06:58:09;;;;;;;11.57;2.20;;;17.20;76.10;;;;;;4776676;30;20055;-70
2021/10/27 07:00:46;;;;;;;12.55;3.55;;;17.20;76.10;;;;;;4792247;30;20132;-72
2021/10/27 07:16:28;;;;;;;11.70;3.05;;;17.10;76.60;;;;;;4792376;30;20067;-72
2021/10/27 07:18:54;;;;;;;11.68;2.78;;;17.10;76.70;;;;;;4791753;30;20436;-72
2021/10/27 07:21:20;;;;;;;11.93;2.88;;;17.10;76.80;;;;;;4791583;30;20116;-71
2021/10/27 07:23:45;;;;;;;10.63;2.60;;;17.10;76.90;;;;;;4791522;30;20058;-72
2021/10/27 07:26:12;;;;;;;12.80;2.22;;;17.10;76.90;;;;;;4776058;30;20058;-72
2021/10/27 07:28:37;;;;;;;10.35;2.20;;;17.10;77.00;;;;;;4775912;30;20494;-71
2021/10/27 07:31:04;;;;;;;10.40;2.10;;;17.10;77.00;;;;;;4791734;30;20051;-71
2021/10/27 07:33:32;;;;;;;10.68;2.22;;;17.10;77.00;;;;;;4791895;30;20047;-71
2021/10/27 07:36:08;;;;;;;9.23;2.15;;;17.10;77.00;;;;;;4791644;30;20059;-71
2021/10/27 07:41:17;;;;;;;;;;;17.10;77.00;;;;;;4792154;30;20059;-70
2021/10/27 07:43:43;;;;;;;8.45;1.88;;;17.00;76.80;;;;;;4791619;30;20406;-72
2021/10/27 07:46:09;;;;;;;11.27;2.13;;;17.00;77.00;;;;;;4775887;30;20055;-72
2021/10/27 07:48:35;;;;;;;8.70;2.58;;;17.00;77.00;;;;;;4791431;30;20059;-72
2021/10/27 07:51:01;;;;;;;9.82;2.08;;;17.00;77.00;;;;;;4790704;30;20051;-72
2021/10/27 07:53:27;;;;;;;8.45;2.13;;;17.00;77.00;;;;;;4791927;30;20138;-71
2021/10/27 07:55:54;;;;;;;8.70;2.15;;;17.00;77.00;;;;;;4792110;30;20138;-72
2021/10/27 07:58:22;;;;;;;8.30;2.10;;;17.00;77.00;;;;;;4791797;30;20371;-72
2021/10/27 08:00:51;;;;;;;13.07;2.88;;;17.00;77.00;;;;;;4791224;30;20059;-72
2021/10/27 08:03:18;;;;;;;10.98;2.88;;;17.10;77.00;;;;;;4791106;30;20479;-71
2021/10/27 08:05:44;;;;;;;7.10;2.35;;;17.10;77.00;;;;;;4775560;30;20059;-72
2021/10/27 08:08:13;;;;;;;7.22;1.90;;;17.00;77.00;;;;;;4775565;30;20086;-71
2021/10/27 08:10:39;;;;;;;8.10;2.20;;;17.10;77.00;;;;;;4791090;30;20051;-72
2021/10/27 08:13:05;;;;;;;7.10;2.08;;;17.10;77.00;;;;;;4791045;30;20066;-71
2021/10/27 08:15:32;;;;;;;8.00;2.13;;;17.10;77.00;;;;;;4791043;30;20406;-72
2021/10/27 08:17:58;;;;;;;9.88;2.00;;;17.10;77.00;;;;;;4790880;30;20560;-72
2021/10/27 08:20:26;;;;;;;6.60;1.80;;;17.10;77.00;;;;;;4791536;30;20097;-71
2021/10/27 08:22:58;;;;;;;7.05;1.95;;;17.00;77.00;;;;;;4790816;30;20348;-71
2021/10/27 08:25:29;;;;;;;6.53;1.95;;;17.00;77.50;;;;;;4774567;30;20055;-71
2021/10/27 08:27:58;;;;;;;6.95;1.92;;;17.10;77.00;;;;;;4775099;30;20055;-70
2021/10/27 08:30:33;;;;;;;5.40;2.20;;;17.00;76.90;;;;;;4790628;30;20066;-71
2021/10/27 08:33:02;;;;;;;11.30;2.08;;;17.00;76.90;;;;;;4775856;30;20337;-71
2021/10/27 08:35:30;;;;;;;9.50;2.55;;;17.00;76.90;;;;;;4790970;30;20102;-72
2021/10/27 08:37:56;;;;;;;7.03;2.28;;;17.00;76.90;;;;;;4790780;30;20047;-72
2021/10/27 08:40:22;;;;;;;6.03;2.10;;;17.10;76.90;;;;;;4790718;30;20055;-71
2021/10/27 08:42:49;;;;;;;6.97;2.17;;;17.10;76.90;;;;;;4790493;30;20071;-71
2021/10/27 08:45:19;;;;;;;7.70;1.90;;;17.00;76.80;;;;;;5110103;27;1287748;-72
2021/10/27 08:47:50;;;;;;;7.43;1.85;;;17.10;76.80;;;;;;5133671;28;20047;-72
2021/10/27 08:50:18;;;;;;;5.88;2.13;;;17.10;76.90;;;;;;5133435;28;20079;-72
2021/10/27 08:52:44;;;;;;;5.93;1.70;;;17.00;76.70;;;;;;5133241;28;20043;-71
2021/10/27 08:55:12;;;;;;;6.90;2.00;;;17.10;76.80;;;;;;5133210;28;20122;-72
2021/10/27 08:57:41;;;;;;;7.10;2.10;;;17.10;76.70;;;;;;5133056;28;20047;-72
2021/10/27 09:00:28;;;;;;;5.82;2.08;;;17.10;76.70;;;;;;5132810;28;20050;-72
2021/10/27 09:08:44;;;;;;;7.40;2.00;;;17.10;76.70;;;;;;5132783;28;20051;-72
2021/10/27 09:15:02;;;;;;;4.47;1.55;;;17.10;76.70;;;;;;5132676;28;20043;-72
2021/10/27 09:37:39;;;;;;;6.35;1.85;;;17.10;76.60;;;;;;5132351;28;20051;-72
2021/10/27 09:43:13;;;;;;;5.85;1.70;;;17.10;76.50;;;;;;5132775;28;20063;-72
2021/10/27 10:05:12;;;;;;;3.90;1.40;;;17.10;76.40;;;;;;5118430;28;20060;-72
2021/10/27 10:07:39;;;;;;;3.58;1.65;;;17.10;76.30;;;;;;5118045;28;20059;-76
2021/10/27 10:10:07;;;;;;;4.10;1.88;;;17.10;76.40;;;;;;5117884;28;20477;-71
2021/10/27 10:12:36;;;;;;;4.25;2.13;;;17.10;76.40;;;;;;5117441;28;20184;-74
2021/10/27 10:15:02;;;;;;;8.55;2.78;;;17.10;76.30;;;;;;5118070;28;20374;-75
2021/10/27 10:17:29;;;;;;;9.00;2.50;;;17.10;76.10;;;;;;5100368;28;20051;-73
2021/10/27 10:19:56;;;;;;;13.13;2.80;;;17.20;76.00;;;;;;5118051;28;20043;-71
2021/10/27 10:22:32;;;;;;;5.63;2.42;;;17.10;76.00;;;;;;5117809;28;20426;-71
2021/10/27 10:25:20;;;;;;;13.60;4.35;;;17.20;76.00;;;;;;5118099;28;20087;-71
2021/10/27 10:27:48;;;;;;;15.32;4.70;;;17.20;76.30;;;;;;5117924;28;20043;-72
2021/10/27 10:30:33;;;;;;;11.85;3.35;;;17.20;76.60;;;;;;5118396;28;20044;-71
2021/10/27 10:33:11;;;;;;;11.85;4.50;;;17.20;76.50;;;;;;5117804;28;20043;-71
2021/10/27 10:35:50;;;;;;;11.75;3.55;;;17.20;76.50;;;;;;5118021;28;20108;-71
2021/10/27 10:45:11;;;;;;;11.65;2.97;;;17.20;76.90;;;;;;5117318;28;20091;-71
2021/10/27 11:37:20;;;;;;;6.82;2.28;;;17.90;76.30;;;;;;5078055;28;20340;-74
2021/10/27 11:41:27;;;;;;;9.32;2.40;;;18.30;75.80;;;;;;5116318;28;20087;-73
2021/10/27 11:43:57;;;;;;;9.15;1.90;;;18.40;75.60;;;;;;5115909;28;20511;-74
2021/10/27 11:46:40;;;;;;;9.88;1.90;;;18.50;75.20;;;;;;5116599;28;20091;-74
2021/10/27 11:49:09;;;;;;;10.15;2.22;;;18.50;75.20;;;;;;5115762;28;20086;-74
2021/10/27 11:51:35;;;;;;;9.15;2.20;;;18.60;75.10;;;;;;5116174;28;20412;-72
2021/10/27 11:54:11;;;;;;;6.45;1.55;;;18.60;74.90;;;;;;5116177;28;20108;-73
2021/10/27 11:56:38;;;;;;;7.13;1.77;;;18.70;74.70;;;;;;5115937;28;20050;-72
2021/10/27 11:59:04;;;;;;;9.02;1.95;;;18.70;74.50;;;;;;5115950;28;20134;-73
2021/10/27 12:01:36;;;;;;;7.75;1.60;;;18.80;75.00;;;;;;5115713;28;20107;-73
2021/10/27 12:04:04;;;;;;;5.60;1.80;;;18.80;74.30;;;;;;5097551;28;20067;-72
2021/10/27 12:06:43;;;;;;;7.90;1.65;;;18.80;74.30;;;;;;5115872;28;20048;-72
2021/10/27 12:09:45;;;;;;;6.78;1.60;;;18.80;74.40;;;;;;5115928;28;20047;-73
2021/10/27 12:12:15;;;;;;;6.75;1.58;;;18.80;74.40;;;;;;5111347;28;20055;-72
2021/10/27 12:15:28;;;;;;;5.55;1.27;;;18.80;74.30;;;;;;5115591;28;20094;-72
2021/10/27 12:18:12;;;;;;;5.10;1.50;;;18.80;74.10;;;;;;5115491;28;20393;-73
2021/10/27 12:20:52;;;;;;;6.75;2.00;;;18.80;74.30;;;;;;5115671;28;20423;-72
2021/10/27 12:23:24;;;;;;;10.00;2.28;;;18.80;74.40;;;;;;5115484;28;20044;-73
2021/10/27 12:25:53;;;;;;;9.65;1.70;;;18.80;74.40;;;;;;5115458;28;20079;-72
2021/10/27 12:28:30;;;;;;;5.63;1.88;;;18.70;74.40;;;;;;5115671;28;20124;-73
2021/10/27 12:30:57;;;;;;;5.95;1.42;;;18.70;74.50;;;;;;5115696;28;20055;-72
2021/10/27 12:33:44;;;;;;;8.20;1.75;;;18.70;74.60;;;;;;5115456;28;20430;-71
2021/10/27 12:36:57;;;;;;;4.63;1.52;;;18.70;74.30;;;;;;5114377;28;20031;-73
2021/10/27 12:39:26;;;;;;;8.60;2.10;;;18.70;74.60;;;;;;5092759;28;20390;-73
2021/10/27 12:42:08;;;;;;;5.07;1.50;;;18.70;74.60;;;;;;5094606;28;20052;-73
2021/10/27 12:44:44;;;;;;;9.63;1.90;;;18.70;74.40;;;;;;5094619;28;20068;-73
2021/10/27 12:47:14;;;;;;;6.65;1.83;;;18.70;74.60;;;;;;5094924;28;20116;-73
2021/10/27 12:49:43;;;;;;;7.63;1.80;;;18.70;74.70;;;;;;5094832;28;20047;-73
2021/10/27 12:52:37;;;;;;;10.23;1.60;;;18.80;74.60;;;;;;5094838;28;20044;-74
2021/10/27 12:55:10;;;;;;;11.07;2.25;;;18.80;74.50;;;;;;5077597;28;20534;-74
2021/10/27 15:21:45;;;;;;;8.57;1.63;;;19.20;74.40;;;;;;4864240;29;20061;-75
2021/10/27 15:24:35;;;;;;;8.07;2.20;;;19.20;74.60;;;;;;4864599;29;20430;-76
2021/10/27 15:30:03;;;;;;;10.30;3.30;;;19.20;74.70;;;;;;4863818;29;20389;-73
2021/10/27 15:32:37;;;;;;;6.50;2.88;;;19.30;74.50;;;;;;4863309;29;20061;-75
2021/10/27 15:40:46;;;;;;;10.43;3.63;;;19.20;73.80;;;;;;4882080;29;20057;-74
2021/10/27 15:43:31;;;;;;;12.50;3.70;;;19.20;74.20;;;;;;4882141;29;20071;-73
2021/10/27 15:51:28;;;;;;;6.95;2.50;;;19.10;74.90;;;;;;4882318;29;20049;-73
2021/10/27 15:53:55;;;;;;;6.30;2.72;;;19.10;75.30;;;;;;4871486;29;20401;-72
2021/10/27 15:56:22;;;;;;;7.72;2.80;;;19.10;75.40;;;;;;4862661;29;20056;-77
2021/10/27 15:58:48;;;;;;;7.20;2.80;;;19.10;75.60;;;;;;4863359;29;20049;-78
2021/10/27 16:01:13;;;;;;;8.93;2.78;;;19.10;75.80;;;;;;4863312;29;20053;-76
2021/10/27 16:03:39;;;;;;;9.43;2.70;;;19.00;75.90;;;;;;4867716;29;20179;-76
2021/10/27 16:06:06;;;;;;;8.13;2.90;;;19.00;76.00;;;;;;4870492;29;20129;-76
2021/10/27 16:08:36;;;;;;;8.35;2.60;;;19.00;76.80;;;;;;4861650;29;20452;-77
2021/10/27 16:11:03;;;;;;;6.03;2.45;;;19.00;76.30;;;;;;4861864;29;20433;-76
2021/10/27 16:13:28;;;;;;;10.90;2.53;;;18.90;76.40;;;;;;4861845;29;20132;-75
2021/10/27 16:15:57;;;;;;;6.80;2.78;;;18.90;76.60;;;;;;4862342;29;20057;-74
2021/10/27 16:18:31;;;;;;;12.93;3.33;;;18.90;76.60;;;;;;4863120;29;20049;-73
2021/10/27 16:20:59;;;;;;;8.98;2.33;;;18.90;76.80;;;;;;4862675;29;20120;-74
2021/10/27 16:23:24;;;;;;;6.43;2.53;;;18.90;76.80;;;;;;4862967;29;20373;-73
2021/10/27 16:25:52;;;;;;;6.47;2.55;;;18.90;77.00;;;;;;4862842;29;20150;-75
2021/10/27 16:28:18;;;;;;;7.03;2.47;;;18.90;76.90;;;;;;4862873;29;20054;-74
2021/10/27 16:30:45;;;;;;;7.28;2.55;;;18.90;76.90;;;;;;4862705;29;20071;-74
2021/10/27 16:33:11;;;;;;;5.70;2.45;;;18.90;76.90;;;;;;4862724;29;20106;-73
2021/10/27 16:35:37;;;;;;;5.93;2.70;;;18.80;76.90;;;;;;4863059;29;20100;-74
2021/10/27 16:38:04;;;;;;;6.70;2.65;;;18.80;76.90;;;;;;4863678;29;20050;-74
2021/10/27 16:40:31;;;;;;;6.00;3.05;;;18.80;77.10;;;;;;4861620;29;20053;-74
2021/10/27 16:42:58;;;;;;;10.13;3.35;;;18.80;78.00;;;;;;4862794;29;20053;-76
2021/10/27 16:45:24;;;;;;;8.40;3.08;;;18.80;78.60;;;;;;4862601;29;20097;-76
2021/10/27 16:47:50;;;;;;;6.65;2.65;;;18.90;79.20;;;;;;4878939;29;20173;-75
2021/10/27 16:50:17;;;;;;;7.38;3.08;;;18.90;79.40;;;;;;4848654;29;20052;-75
2021/10/27 16:52:45;;;;;;;8.68;2.72;;;18.90;79.50;;;;;;4881606;29;20063;-74
2021/10/27 16:55:18;;;;;;;10.13;2.45;;;18.90;79.60;;;;;;4881169;29;20045;-76
2021/10/27 16:57:45;;;;;;;5.00;2.60;;;18.90;79.50;;;;;;4880952;29;20049;-74
2021/10/27 17:00:12;;;;;;;6.60;2.75;;;18.90;79.50;;;;;;4881332;29;20052;-74
2021/10/27 17:02:37;;;;;;;8.25;2.90;;;18.90;79.60;;;;;;4881486;29;20469;-74
2021/10/27 17:05:04;;;;;;;8.85;3.15;;;18.90;79.30;;;;;;4881587;29;20084;-75
2021/10/27 17:07:31;;;;;;;8.15;2.50;;;18.90;79.10;;;;;;4868103;29;20084;-74
2021/10/27 17:09:57;;;;;;;9.30;2.67;;;18.90;78.90;;;;;;4884343;29;20045;-73
2021/10/27 17:12:23;;;;;;;13.05;3.47;;;18.90;78.70;;;;;;4884741;29;20112;-73
2021/10/27 17:14:49;;;;;;;9.85;2.63;;;18.90;78.70;;;;;;4884918;29;20045;-71
2021/10/27 17:17:14;;;;;;;11.32;3.05;;;18.90;78.50;;;;;;4885013;29;20063;-73
2021/10/27 17:19:41;;;;;;;11.18;2.80;;;18.90;78.20;;;;;;4884478;29;20537;-72
2021/10/27 17:22:10;;;;;;;9.60;2.63;;;18.90;78.00;;;;;;4884198;29;20460;-72
2021/10/27 17:24:36;;;;;;;6.13;2.67;;;18.90;77.60;;;;;;4867970;29;20052;-74
2021/10/27 17:27:03;;;;;;;5.50;2.22;;;18.80;77.10;;;;;;4884276;29;20125;-73
2021/10/27 17:29:30;;;;;;;7.43;2.70;;;18.90;76.80;;;;;;4868268;29;20057;-74
2021/10/27 17:31:56;;;;;;;7.53;2.33;;;18.90;76.40;;;;;;4884640;29;20088;-73
2021/10/27 17:34:22;;;;;;;10.02;2.70;;;18.80;76.00;;;;;;4884526;29;20081;-73
